Back to Top

Language: 

My Weather Underground Personal Weather Station Historical Data with Graphs...

Delerius Weather Station Historical Data
Daily Summary for January 26, 2017 Units:  Metric    English   Both
« Previous Day
Next Day »
Daily Weekly Monthly Yearly Custom
  High: Low: Average:
Temperature: 2.3 °C -1.8 °C -0.2 °C
Dew Point: 1 °C -3.2 °C -1.6 °C
Humidity: 94 % 87 % 90 %
Wind Speed: 17.7 km/h 6.4 km/h 13 km/h
Wind Gust: -1607.7 km/h - -
Wind:- - SSE
Pressure: 1022.9 hPa 1014.8 hPa -
Precipitation: 0 mm    
Historical Graphs
 
 
Tabular Data for January 26, 2017
Time Temperature Dew Point Pressure Wind Wind Speed Wind Gust Humidity Rainfall Rate (Hourly) solar Conditions
00:01 2.3 °C 1 °C 1022.9 hPa SSE 6.4 km/h -1607.7 km/h 91 % 0 mm 0 W/m2
00:06 2.3 °C 1 °C 1022.9 hPa SSE 6.4 km/h -1607.7 km/h 91 % 0 mm 0 W/m2
00:11 2.3 °C 1 °C 1022.9 hPa SSE 6.4 km/h -1607.7 km/h 91 % 0 mm 0 W/m2
00:16 2.3 °C 1 °C 1022.9 hPa SSE 6.4 km/h -1607.7 km/h 91 % 0 mm 0 W/m2
00:21 2.3 °C 1 °C 1022.9 hPa SSE 6.4 km/h -1607.7 km/h 91 % 0 mm 0 W/m2
00:26 2.3 °C 1 °C 1022.6 hPa South 11.3 km/h -1607.7 km/h 91 % 0 mm 0 W/m2
00:31 2.3 °C 1 °C 1022.6 hPa South 11.3 km/h -1607.7 km/h 91 % 0 mm 0 W/m2
00:36 2.3 °C 1 °C 1022.6 hPa South 11.3 km/h -1607.7 km/h 91 % 0 mm 0 W/m2
00:41 2.3 °C 1 °C 1022.6 hPa South 6.4 km/h -1607.7 km/h 91 % 0 mm 0 W/m2
00:46 2.3 °C 1 °C 1022.6 hPa South 6.4 km/h -1607.7 km/h 91 % 0 mm 0 W/m2
00:51 2.3 °C 1 °C 1022.6 hPa South 6.4 km/h -1607.7 km/h 91 % 0 mm 0 W/m2
00:56 2.3 °C 1 °C 1022.2 hPa SE 9.7 km/h -1607.7 km/h 91 % 0 mm 0 W/m2
01:01 2.3 °C 1 °C 1022.2 hPa SE 9.7 km/h -1607.7 km/h 91 % 0 mm 0 W/m2
01:06 2.3 °C 1 °C 1022.2 hPa SE 9.7 km/h -1607.7 km/h 91 % 0 mm 0 W/m2
01:11 2.2 °C 1 °C 1022.2 hPa SE 12.9 km/h -1607.7 km/h 92 % 0 mm 0 W/m2
01:16 2.2 °C 1 °C 1022.2 hPa SE 12.9 km/h -1607.7 km/h 92 % 0 mm 0 W/m2
01:21 2.2 °C 1 °C 1022.2 hPa SE 12.9 km/h -1607.7 km/h 92 % 0 mm 0 W/m2
01:26 1.8 °C 0.4 °C 1022.2 hPa South 14.5 km/h -1607.7 km/h 91 % 0 mm 0 W/m2
01:31 1.8 °C 0.4 °C 1022.2 hPa South 14.5 km/h -1607.7 km/h 91 % 0 mm 0 W/m2
01:36 1.8 °C 0.4 °C 1022.2 hPa South 14.5 km/h -1607.7 km/h 91 % 0 mm 0 W/m2
01:41 1.4 °C 0.3 °C 1021.9 hPa SSE 11.3 km/h -1607.7 km/h 92 % 0 mm 0 W/m2
01:46 1.4 °C 0.3 °C 1021.9 hPa SSE 11.3 km/h -1607.7 km/h 92 % 0 mm 0 W/m2
01:51 1.4 °C 0.3 °C 1021.9 hPa SSE 11.3 km/h -1607.7 km/h 92 % 0 mm 0 W/m2
01:56 1.4 °C 0.1 °C 1021.9 hPa SSE 12.9 km/h -1607.7 km/h 91 % 0 mm 0 W/m2
02:01 1.4 °C 0.1 °C 1021.9 hPa SSE 12.9 km/h -1607.7 km/h 91 % 0 mm 0 W/m2
02:06 1.4 °C 0.1 °C 1021.9 hPa SSE 12.9 km/h -1607.7 km/h 91 % 0 mm 0 W/m2
02:11 1.4 °C 0.1 °C 1021.6 hPa SE 12.9 km/h -1607.7 km/h 91 % 0 mm 0 W/m2
02:16 1.4 °C 0.1 °C 1021.6 hPa SE 12.9 km/h -1607.7 km/h 91 % 0 mm 0 W/m2
02:21 1.4 °C 0.1 °C 1021.6 hPa SE 12.9 km/h -1607.7 km/h 91 % 0 mm 0 W/m2
02:26 1.5 °C 0.2 °C 1021.6 hPa SSE 12.9 km/h -1607.7 km/h 91 % 0 mm 0 W/m2
02:31 1.5 °C 0.2 °C 1021.6 hPa SSE 12.9 km/h -1607.7 km/h 91 % 0 mm 0 W/m2
02:36 1.5 °C 0.2 °C 1021.6 hPa SSE 12.9 km/h -1607.7 km/h 91 % 0 mm 0 W/m2
02:41 1.5 °C 0.2 °C 1021.2 hPa SSE 11.3 km/h -1607.7 km/h 91 % 0 mm 0 W/m2
02:46 1.5 °C 0.2 °C 1021.2 hPa SSE 11.3 km/h -1607.7 km/h 91 % 0 mm 0 W/m2
02:51 1.5 °C 0.2 °C 1021.2 hPa SSE 11.3 km/h -1607.7 km/h 91 % 0 mm 0 W/m2
02:56 1.5 °C 0.2 °C 1021.2 hPa SE 12.9 km/h -1607.7 km/h 91 % 0 mm 0 W/m2
03:01 1.5 °C 0.2 °C 1021.2 hPa SE 12.9 km/h -1607.7 km/h 91 % 0 mm 0 W/m2
03:06 1.5 °C 0.2 °C 1021.2 hPa SE 12.9 km/h -1607.7 km/h 91 % 0 mm 0 W/m2
03:11 1.3 °C 0.2 °C 1021.2 hPa SE 16.1 km/h -1607.7 km/h 92 % 0 mm 0 W/m2
03:16 1.3 °C 0.2 °C 1021.2 hPa SE 16.1 km/h -1607.7 km/h 92 % 0 mm 0 W/m2
03:21 1.3 °C 0.2 °C 1021.2 hPa SE 16.1 km/h -1607.7 km/h 92 % 0 mm 0 W/m2
03:26 0.9 °C -0.1 °C 1020.9 hPa SE 16.1 km/h -1607.7 km/h 93 % 0 mm 0 W/m2
03:31 0.9 °C -0.1 °C 1020.9 hPa SE 16.1 km/h -1607.7 km/h 93 % 0 mm 0 W/m2
03:36 0.9 °C -0.1 °C 1020.9 hPa SE 16.1 km/h -1607.7 km/h 93 % 0 mm 0 W/m2
03:41 0.6 °C -0.4 °C 1020.9 hPa SE 14.5 km/h -1607.7 km/h 93 % 0 mm 0 W/m2
03:46 0.6 °C -0.4 °C 1020.9 hPa SE 14.5 km/h -1607.7 km/h 93 % 0 mm 0 W/m2
03:51 0.6 °C -0.4 °C 1020.9 hPa SE 14.5 km/h -1607.7 km/h 93 % 0 mm 0 W/m2
03:56 0.4 °C -0.6 °C 1020.5 hPa SE 12.9 km/h -1607.7 km/h 93 % 0 mm 0 W/m2
04:01 0.4 °C -0.6 °C 1020.5 hPa SE 12.9 km/h -1607.7 km/h 93 % 0 mm 0 W/m2
04:06 0.4 °C -0.6 °C 1020.5 hPa SE 12.9 km/h -1607.7 km/h 93 % 0 mm 0 W/m2
04:11 0.4 °C -0.4 °C 1020.5 hPa SE 11.3 km/h -1607.7 km/h 94 % 0 mm 0 W/m2
04:16 0.4 °C -0.4 °C 1020.5 hPa SE 11.3 km/h -1607.7 km/h 94 % 0 mm 0 W/m2
04:21 0.4 °C -0.4 °C 1020.5 hPa SE 11.3 km/h -1607.7 km/h 94 % 0 mm 0 W/m2
04:26 0.2 °C -0.6 °C 1020.2 hPa SSE 12.9 km/h -1607.7 km/h 94 % 0 mm 0 W/m2
04:31 0.2 °C -0.6 °C 1020.2 hPa SSE 12.9 km/h -1607.7 km/h 94 % 0 mm 0 W/m2
04:36 0.2 °C -0.6 °C 1020.2 hPa SSE 12.9 km/h -1607.7 km/h 94 % 0 mm 0 W/m2
04:41 -0.1 °C -0.9 °C 1020.2 hPa SE 14.5 km/h -1607.7 km/h 94 % 0 mm 0 W/m2
04:46 -0.1 °C -0.9 °C 1020.2 hPa SE 14.5 km/h -1607.7 km/h 94 % 0 mm 0 W/m2
04:51 -0.1 °C -0.9 °C 1020.2 hPa SE 14.5 km/h -1607.7 km/h 94 % 0 mm 0 W/m2
04:56 -0.4 °C -1.2 °C 1020.2 hPa SE 16.1 km/h -1607.7 km/h 94 % 0 mm 0 W/m2
05:01 -0.4 °C -1.2 °C 1020.2 hPa SE 16.1 km/h -1607.7 km/h 94 % 0 mm 0 W/m2
05:06 -0.4 °C -1.2 °C 1020.2 hPa SE 16.1 km/h -1607.7 km/h 94 % 0 mm 0 W/m2
05:11 -0.5 °C -1.3 °C 1020.2 hPa SSE 14.5 km/h -1607.7 km/h 94 % 0 mm 0 W/m2
05:16 -0.5 °C -1.3 °C 1020.2 hPa SSE 14.5 km/h -1607.7 km/h 94 % 0 mm 0 W/m2
05:21 -0.5 °C -1.3 °C 1020.2 hPa SSE 14.5 km/h -1607.7 km/h 94 % 0 mm 0 W/m2
05:26 -0.4 °C -1.3 °C 1019.9 hPa SE 12.9 km/h -1607.7 km/h 94 % 0 mm 0 W/m2
05:31 -0.4 °C -1.3 °C 1019.9 hPa SE 12.9 km/h -1607.7 km/h 94 % 0 mm 0 W/m2
05:36 -0.4 °C -1.3 °C 1019.9 hPa SE 12.9 km/h -1607.7 km/h 94 % 0 mm 0 W/m2
05:41 -0.4 °C -1.3 °C 1019.9 hPa SE 17.7 km/h -1607.7 km/h 94 % 0 mm 0 W/m2
05:46 -0.4 °C -1.3 °C 1019.9 hPa SE 17.7 km/h -1607.7 km/h 94 % 0 mm 0 W/m2
05:51 -0.4 °C -1.3 °C 1019.9 hPa SE 17.7 km/h -1607.7 km/h 94 % 0 mm 0 W/m2
05:56 -0.5 °C -1.3 °C 1019.9 hPa SE 16.1 km/h -1607.7 km/h 94 % 0 mm 0 W/m2
06:01 -0.5 °C -1.3 °C 1019.9 hPa SE 16.1 km/h -1607.7 km/h 94 % 0 mm 0 W/m2
06:06 -0.5 °C -1.3 °C 1019.9 hPa SE 16.1 km/h -1607.7 km/h 94 % 0 mm 0 W/m2
06:11 -0.4 °C -1.3 °C 1019.5 hPa SSE 12.9 km/h -1607.7 km/h 94 % 0 mm 0 W/m2
06:16 -0.4 °C -1.3 °C 1019.5 hPa SSE 12.9 km/h -1607.7 km/h 94 % 0 mm 0 W/m2
06:21 -0.4 °C -1.3 °C 1019.5 hPa SSE 12.9 km/h -1607.7 km/h 94 % 0 mm 0 W/m2
06:26 -0.4 °C -1.3 °C 1019.5 hPa SE 16.1 km/h -1607.7 km/h 94 % 0 mm 0 W/m2
06:31 -0.4 °C -1.3 °C 1019.5 hPa SE 16.1 km/h -1607.7 km/h 94 % 0 mm 0 W/m2
06:36 -0.4 °C -1.3 °C 1019.5 hPa SE 16.1 km/h -1607.7 km/h 94 % 0 mm 0 W/m2
06:41 -0.6 °C -1.4 °C 1019.5 hPa SE 17.7 km/h -1607.7 km/h 94 % 0 mm 0 W/m2
06:46 -0.6 °C -1.4 °C 1019.5 hPa SE 17.7 km/h -1607.7 km/h 94 % 0 mm 0 W/m2
06:51 -0.6 °C -1.4 °C 1019.5 hPa SE 17.7 km/h -1607.7 km/h 94 % 0 mm 0 W/m2
06:56 -0.6 °C -1.6 °C 1019.2 hPa SE 16.1 km/h -1607.7 km/h 93 % 0 mm 0 W/m2
07:01 -0.6 °C -1.6 °C 1019.2 hPa SE 16.1 km/h -1607.7 km/h 93 % 0 mm 0 W/m2
07:06 -0.6 °C -1.6 °C 1019.2 hPa SE 16.1 km/h -1607.7 km/h 93 % 0 mm 0 W/m2
07:11 -0.6 °C -1.6 °C 1019.2 hPa SSE 16.1 km/h -1607.7 km/h 93 % 0 mm 0 W/m2
07:16 -0.6 °C -1.6 °C 1019.2 hPa SSE 16.1 km/h -1607.7 km/h 93 % 0 mm 0 W/m2
07:21 -0.6 °C -1.6 °C 1019.2 hPa SSE 16.1 km/h -1607.7 km/h 93 % 0 mm 0 W/m2
07:26 -0.5 °C -1.5 °C 1019.2 hPa SSE 9.7 km/h -1607.7 km/h 93 % 0 mm 0 W/m2
07:31 -0.5 °C -1.5 °C 1019.2 hPa SSE 9.7 km/h -1607.7 km/h 93 % 0 mm 0 W/m2
07:36 -0.5 °C -1.5 °C 1019.2 hPa SSE 9.7 km/h -1607.7 km/h 93 % 0 mm 0 W/m2
07:41 -0.4 °C -1.6 °C 1018.8 hPa SE 16.1 km/h -1607.7 km/h 92 % 0 mm 0 W/m2
07:46 -0.4 °C -1.6 °C 1018.8 hPa SE 16.1 km/h -1607.7 km/h 92 % 0 mm 0 W/m2
07:51 -0.4 °C -1.6 °C 1018.8 hPa SE 16.1 km/h -1607.7 km/h 92 % 0 mm 0 W/m2
07:56 -0.4 °C -1.6 °C 1018.8 hPa SE 12.9 km/h -1607.7 km/h 92 % 0 mm 0 W/m2
08:01 -0.4 °C -1.6 °C 1018.8 hPa SE 12.9 km/h -1607.7 km/h 92 % 0 mm 0 W/m2
08:06 -0.4 °C -1.6 °C 1018.8 hPa SE 12.9 km/h -1607.7 km/h 92 % 0 mm 0 W/m2
08:11 -0.3 °C -1.5 °C 1018.8 hPa SE 11.3 km/h -1607.7 km/h 92 % 0 mm 0 W/m2
08:16 -0.3 °C -1.5 °C 1018.8 hPa SE 11.3 km/h -1607.7 km/h 92 % 0 mm 0 W/m2
08:21 -0.3 °C -1.5 °C 1018.8 hPa SE 11.3 km/h -1607.7 km/h 92 % 0 mm 0 W/m2
08:26 -0.3 °C -1.6 °C 1018.8 hPa SE 12.9 km/h -1607.7 km/h 91 % 0 mm 6 W/m2
08:31 -0.3 °C -1.6 °C 1018.8 hPa SE 12.9 km/h -1607.7 km/h 91 % 0 mm 6 W/m2
08:36 -0.3 °C -1.6 °C 1018.8 hPa SE 12.9 km/h -1607.7 km/h 91 % 0 mm 6 W/m2
08:41 -0.3 °C -1.6 °C 1018.8 hPa SSE 14.5 km/h -1607.7 km/h 91 % 0 mm 11 W/m2
08:46 -0.3 °C -1.6 °C 1018.8 hPa SSE 14.5 km/h -1607.7 km/h 91 % 0 mm 11 W/m2
08:51 -0.3 °C -1.6 °C 1018.8 hPa SSE 14.5 km/h -1607.7 km/h 91 % 0 mm 11 W/m2
08:56 -0.2 °C -1.7 °C 1018.8 hPa SE 14.5 km/h -1607.7 km/h 90 % 0 mm 16 W/m2
09:01 -0.2 °C -1.7 °C 1018.8 hPa SE 14.5 km/h -1607.7 km/h 90 % 0 mm 16 W/m2
09:06 -0.2 °C -1.7 °C 1018.8 hPa SE 14.5 km/h -1607.7 km/h 90 % 0 mm 16 W/m2
09:11 -0.1 °C -1.6 °C 1018.5 hPa SE 11.3 km/h -1607.7 km/h 90 % 0 mm 18 W/m2
09:16 -0.1 °C -1.6 °C 1018.5 hPa SE 11.3 km/h -1607.7 km/h 90 % 0 mm 18 W/m2
09:21 -0.1 °C -1.6 °C 1018.5 hPa SE 11.3 km/h -1607.7 km/h 90 % 0 mm 18 W/m2
09:26 -0.2 °C -1.8 °C 1018.5 hPa SSE 12.9 km/h -1607.7 km/h 89 % 0 mm 28 W/m2
09:31 -0.2 °C -1.8 °C 1018.5 hPa SSE 12.9 km/h -1607.7 km/h 89 % 0 mm 28 W/m2
09:36 -0.2 °C -1.8 °C 1018.5 hPa SSE 12.9 km/h -1607.7 km/h 89 % 0 mm 28 W/m2
09:41 -0.3 °C -1.7 °C 1018.5 hPa SE 14.5 km/h -1607.7 km/h 90 % 0 mm 30 W/m2
09:46 -0.3 °C -1.7 °C 1018.5 hPa SE 14.5 km/h -1607.7 km/h 90 % 0 mm 30 W/m2
09:51 -0.3 °C -1.7 °C 1018.5 hPa SE 14.5 km/h -1607.7 km/h 90 % 0 mm 30 W/m2
09:56 -0.3 °C -1.9 °C 1018.5 hPa SE 16.1 km/h -1607.7 km/h 89 % 0 mm 35 W/m2
10:01 -0.3 °C -1.9 °C 1018.5 hPa SE 16.1 km/h -1607.7 km/h 89 % 0 mm 35 W/m2
10:06 -0.3 °C -1.9 °C 1018.5 hPa SE 16.1 km/h -1607.7 km/h 89 % 0 mm 35 W/m2
10:11 -0.3 °C -1.9 °C 1018.2 hPa SE 16.1 km/h -1607.7 km/h 89 % 0 mm 39 W/m2
10:16 -0.3 °C -1.9 °C 1018.2 hPa SE 16.1 km/h -1607.7 km/h 89 % 0 mm 39 W/m2
10:21 -0.3 °C -1.9 °C 1018.2 hPa SE 16.1 km/h -1607.7 km/h 89 % 0 mm 39 W/m2
10:26 -0.2 °C -1.8 °C 1018.2 hPa SSE 11.3 km/h -1607.7 km/h 89 % 0 mm 43 W/m2
10:31 -0.2 °C -1.8 °C 1018.2 hPa SSE 11.3 km/h -1607.7 km/h 89 % 0 mm 43 W/m2
10:36 -0.2 °C -1.8 °C 1018.2 hPa SSE 11.3 km/h -1607.7 km/h 89 % 0 mm 43 W/m2
10:41 -0.3 °C -2 °C 1018.2 hPa SE 16.1 km/h -1607.7 km/h 88 % 0 mm 55 W/m2
10:46 -0.3 °C -2 °C 1018.2 hPa SE 16.1 km/h -1607.7 km/h 88 % 0 mm 55 W/m2
10:51 -0.3 °C -2 °C 1018.2 hPa SE 16.1 km/h -1607.7 km/h 88 % 0 mm 55 W/m2
10:56 -0.3 °C -2.1 °C 1018.2 hPa SE 11.3 km/h -1607.7 km/h 88 % 0 mm 54 W/m2
11:01 -0.3 °C -2.1 °C 1018.2 hPa SE 11.3 km/h -1607.7 km/h 88 % 0 mm 54 W/m2
11:06 -0.3 °C -2.1 °C 1018.2 hPa SE 11.3 km/h -1607.7 km/h 88 % 0 mm 54 W/m2
11:11 -0.4 °C -2.1 °C 1017.8 hPa SSE 12.9 km/h -1607.7 km/h 88 % 0 mm 58 W/m2
11:16 -0.4 °C -2.1 °C 1017.8 hPa SSE 12.9 km/h -1607.7 km/h 88 % 0 mm 58 W/m2
11:21 -0.4 °C -2.1 °C 1017.8 hPa SSE 12.9 km/h -1607.7 km/h 88 % 0 mm 58 W/m2
11:26 -0.5 °C -2.2 °C 1017.5 hPa SE 12.9 km/h -1607.7 km/h 88 % 0 mm 58 W/m2
11:31 -0.5 °C -2.2 °C 1017.5 hPa SE 12.9 km/h -1607.7 km/h 88 % 0 mm 58 W/m2
11:36 -0.5 °C -2.2 °C 1017.5 hPa SE 12.9 km/h -1607.7 km/h 88 % 0 mm 58 W/m2
11:41 -0.5 °C -2.4 °C 1017.5 hPa SE 16.1 km/h -1607.7 km/h 87 % 0 mm 49 W/m2
11:46 -0.5 °C -2.4 °C 1017.5 hPa SE 16.1 km/h -1607.7 km/h 87 % 0 mm 49 W/m2
11:51 -0.5 °C -2.4 °C 1017.5 hPa SE 16.1 km/h -1607.7 km/h 87 % 0 mm 49 W/m2
11:56 -0.6 °C -2.3 °C 1017.5 hPa SSE 14.5 km/h -1607.7 km/h 88 % 0 mm 42 W/m2
12:01 -0.6 °C -2.3 °C 1017.5 hPa SSE 14.5 km/h -1607.7 km/h 88 % 0 mm 42 W/m2
12:06 -0.6 °C -2.3 °C 1017.5 hPa SSE 14.5 km/h -1607.7 km/h 88 % 0 mm 42 W/m2
12:11 -0.6 °C -2.3 °C 1017.2 hPa SE 12.9 km/h -1607.7 km/h 88 % 0 mm 47 W/m2
12:16 -0.6 °C -2.3 °C 1017.2 hPa SE 12.9 km/h -1607.7 km/h 88 % 0 mm 47 W/m2
12:21 -0.6 °C -2.3 °C 1017.2 hPa SE 12.9 km/h -1607.7 km/h 88 % 0 mm 47 W/m2
12:26 -0.5 °C -2.2 °C 1017.2 hPa SSE 9.7 km/h -1607.7 km/h 88 % 0 mm 55 W/m2
12:31 -0.5 °C -2.2 °C 1017.2 hPa SSE 9.7 km/h -1607.7 km/h 88 % 0 mm 55 W/m2
12:36 -0.5 °C -2.2 °C 1017.2 hPa SSE 9.7 km/h -1607.7 km/h 88 % 0 mm 55 W/m2
12:41 -0.4 °C -2.2 °C 1016.8 hPa SSE 12.9 km/h -1607.7 km/h 88 % 0 mm 56 W/m2
12:46 -0.4 °C -2.2 °C 1016.8 hPa SSE 12.9 km/h -1607.7 km/h 88 % 0 mm 56 W/m2
12:51 -0.4 °C -2.2 °C 1016.8 hPa SSE 12.9 km/h -1607.7 km/h 88 % 0 mm 56 W/m2
12:56 -0.5 °C -2.2 °C 1016.8 hPa South 14.5 km/h -1607.7 km/h 88 % 0 mm 66 W/m2
13:01 -0.5 °C -2.2 °C 1016.8 hPa South 14.5 km/h -1607.7 km/h 88 % 0 mm 66 W/m2
13:06 -0.5 °C -2.2 °C 1016.8 hPa South 14.5 km/h -1607.7 km/h 88 % 0 mm 66 W/m2
13:11 -0.4 °C -2.3 °C 1016.5 hPa SSE 12.9 km/h -1607.7 km/h 87 % 0 mm 59 W/m2
13:16 -0.4 °C -2.3 °C 1016.5 hPa SSE 12.9 km/h -1607.7 km/h 87 % 0 mm 59 W/m2
13:21 -0.4 °C -2.3 °C 1016.5 hPa SSE 12.9 km/h -1607.7 km/h 87 % 0 mm 59 W/m2
13:26 -0.4 °C -2.2 °C 1016.5 hPa SE 14.5 km/h -1607.7 km/h 88 % 0 mm 46 W/m2
13:31 -0.4 °C -2.2 °C 1016.5 hPa SE 14.5 km/h -1607.7 km/h 88 % 0 mm 46 W/m2
13:36 -0.4 °C -2.2 °C 1016.5 hPa SE 14.5 km/h -1607.7 km/h 88 % 0 mm 46 W/m2
13:41 -0.4 °C -2.2 °C 1016.5 hPa SSE 11.3 km/h -1607.7 km/h 88 % 0 mm 40 W/m2
13:46 -0.4 °C -2.2 °C 1016.5 hPa SSE 11.3 km/h -1607.7 km/h 88 % 0 mm 40 W/m2
13:51 -0.4 °C -2.2 °C 1016.5 hPa SSE 11.3 km/h -1607.7 km/h 88 % 0 mm 40 W/m2
13:56 -0.4 °C -2 °C 1016.5 hPa SE 12.9 km/h -1607.7 km/h 89 % 0 mm 35 W/m2
14:01 -0.4 °C -2 °C 1016.5 hPa SE 12.9 km/h -1607.7 km/h 89 % 0 mm 35 W/m2
14:06 -0.4 °C -2 °C 1016.5 hPa SE 12.9 km/h -1607.7 km/h 89 % 0 mm 35 W/m2
14:11 -0.4 °C -2.1 °C 1016.1 hPa SE 17.7 km/h -1607.7 km/h 89 % 0 mm 35 W/m2
14:16 -0.4 °C -2.1 °C 1016.1 hPa SE 17.7 km/h -1607.7 km/h 89 % 0 mm 35 W/m2
14:21 -0.4 °C -2.1 °C 1016.1 hPa SE 17.7 km/h -1607.7 km/h 89 % 0 mm 35 W/m2
14:26 -0.4 °C -2.2 °C 1016.1 hPa SE 14.5 km/h -1607.7 km/h 88 % 0 mm 32 W/m2
14:31 -0.4 °C -2.2 °C 1016.1 hPa SE 14.5 km/h -1607.7 km/h 88 % 0 mm 32 W/m2
14:36 -0.4 °C -2.2 °C 1016.1 hPa SE 14.5 km/h -1607.7 km/h 88 % 0 mm 32 W/m2
14:41 -0.4 °C -2.2 °C 1016.1 hPa SSE 12.9 km/h -1607.7 km/h 88 % 0 mm 29 W/m2
14:46 -0.4 °C -2.2 °C 1016.1 hPa SSE 12.9 km/h -1607.7 km/h 88 % 0 mm 29 W/m2
14:51 -0.4 °C -2.2 °C 1016.1 hPa SSE 12.9 km/h -1607.7 km/h 88 % 0 mm 29 W/m2
14:56 -0.4 °C -2.1 °C 1016.1 hPa South 9.7 km/h -1607.7 km/h 88 % 0 mm 25 W/m2
15:01 -0.4 °C -2.1 °C 1016.1 hPa South 9.7 km/h -1607.7 km/h 88 % 0 mm 25 W/m2
15:06 -0.4 °C -2.1 °C 1016.1 hPa South 9.7 km/h -1607.7 km/h 88 % 0 mm 25 W/m2
15:11 -0.4 °C -2.1 °C 1016.1 hPa SSE 14.5 km/h -1607.7 km/h 88 % 0 mm 18 W/m2
15:16 -0.4 °C -2.1 °C 1016.1 hPa SSE 14.5 km/h -1607.7 km/h 88 % 0 mm 18 W/m2
15:21 -0.4 °C -2.1 °C 1016.1 hPa SSE 14.5 km/h -1607.7 km/h 88 % 0 mm 18 W/m2
15:26 -0.4 °C -2.1 °C 1016.1 hPa SE 14.5 km/h -1607.7 km/h 89 % 0 mm 14 W/m2
15:31 -0.4 °C -2.1 °C 1016.1 hPa SE 14.5 km/h -1607.7 km/h 89 % 0 mm 14 W/m2
15:36 -0.4 °C -2.1 °C 1016.1 hPa SE 14.5 km/h -1607.7 km/h 89 % 0 mm 14 W/m2
15:41 -0.4 °C -2 °C 1016.1 hPa SE 14.5 km/h -1607.7 km/h 89 % 0 mm 10 W/m2
15:46 -0.4 °C -2 °C 1016.1 hPa SE 14.5 km/h -1607.7 km/h 89 % 0 mm 10 W/m2
15:51 -0.4 °C -2 °C 1016.1 hPa SE 14.5 km/h -1607.7 km/h 89 % 0 mm 10 W/m2
15:56 -0.4 °C -2.1 °C 1015.8 hPa SE 16.1 km/h -1607.7 km/h 89 % 0 mm 7 W/m2
16:01 -0.4 °C -2.1 °C 1015.8 hPa SE 16.1 km/h -1607.7 km/h 89 % 0 mm 7 W/m2
16:06 -0.4 °C -2.1 °C 1015.8 hPa SE 16.1 km/h -1607.7 km/h 89 % 0 mm 7 W/m2
16:11 -0.4 °C -2 °C 1016.1 hPa SSE 14.5 km/h -1607.7 km/h 89 % 0 mm 4 W/m2
16:16 -0.4 °C -2 °C 1016.1 hPa SSE 14.5 km/h -1607.7 km/h 89 % 0 mm 4 W/m2
16:21 -0.4 °C -2 °C 1016.1 hPa SSE 14.5 km/h -1607.7 km/h 89 % 0 mm 4 W/m2
16:26 -0.4 °C -1.8 °C 1016.1 hPa SSE 11.3 km/h -1607.7 km/h 90 % 0 mm 0 W/m2
16:31 -0.4 °C -1.8 °C 1016.1 hPa SSE 11.3 km/h -1607.7 km/h 90 % 0 mm 0 W/m2
16:36 -0.4 °C -1.8 °C 1016.1 hPa SSE 11.3 km/h -1607.7 km/h 90 % 0 mm 0 W/m2
16:41 -0.4 °C -1.8 °C 1015.8 hPa SE 14.5 km/h -1607.7 km/h 90 % 0 mm 0 W/m2
16:46 -0.4 °C -1.8 °C 1015.8 hPa SE 14.5 km/h -1607.7 km/h 90 % 0 mm 0 W/m2
16:51 -0.4 °C -1.8 °C 1015.8 hPa SE 14.5 km/h -1607.7 km/h 90 % 0 mm 0 W/m2
16:56 -0.4 °C -1.8 °C 1015.8 hPa SSE 16.1 km/h -1607.7 km/h 90 % 0 mm 0 W/m2
17:01 -0.4 °C -1.8 °C 1015.8 hPa SSE 16.1 km/h -1607.7 km/h 90 % 0 mm 0 W/m2
17:06 -0.4 °C -1.8 °C 1015.8 hPa SSE 16.1 km/h -1607.7 km/h 90 % 0 mm 0 W/m2
17:11 -0.4 °C -2 °C 1015.8 hPa SSE 12.9 km/h -1607.7 km/h 89 % 0 mm 0 W/m2
17:16 -0.4 °C -2 °C 1015.8 hPa SSE 12.9 km/h -1607.7 km/h 89 % 0 mm 0 W/m2
17:21 -0.4 °C -2 °C 1015.8 hPa SSE 12.9 km/h -1607.7 km/h 89 % 0 mm 0 W/m2
17:26 -0.4 °C -1.8 °C 1015.8 hPa SSE 14.5 km/h -1607.7 km/h 90 % 0 mm 0 W/m2
17:31 -0.4 °C -1.8 °C 1015.8 hPa SSE 14.5 km/h -1607.7 km/h 90 % 0 mm 0 W/m2
17:36 -0.4 °C -1.8 °C 1015.8 hPa SSE 14.5 km/h -1607.7 km/h 90 % 0 mm 0 W/m2
17:41 -0.4 °C -2.1 °C 1015.8 hPa SSE 16.1 km/h -1607.7 km/h 89 % 0 mm 0 W/m2
17:46 -0.4 °C -2.1 °C 1015.8 hPa SSE 16.1 km/h -1607.7 km/h 89 % 0 mm 0 W/m2
17:51 -0.4 °C -2.1 °C 1015.8 hPa SSE 16.1 km/h -1607.7 km/h 89 % 0 mm 0 W/m2
17:56 -0.4 °C -2.1 °C 1015.8 hPa SSE 17.7 km/h -1607.7 km/h 89 % 0 mm 0 W/m2
18:01 -0.4 °C -2.1 °C 1015.8 hPa SSE 17.7 km/h -1607.7 km/h 89 % 0 mm 0 W/m2
18:06 -0.4 °C -2.1 °C 1015.8 hPa SSE 17.7 km/h -1607.7 km/h 89 % 0 mm 0 W/m2
18:11 -0.5 °C -2.1 °C 1015.8 hPa SSE 14.5 km/h -1607.7 km/h 89 % 0 mm 0 W/m2
18:16 -0.5 °C -2.1 °C 1015.8 hPa SSE 14.5 km/h -1607.7 km/h 89 % 0 mm 0 W/m2
18:21 -0.5 °C -2.1 °C 1015.8 hPa SSE 14.5 km/h -1607.7 km/h 89 % 0 mm 0 W/m2
18:26 -0.6 °C -2.2 °C 1015.8 hPa South 12.9 km/h -1607.7 km/h 89 % 0 mm 0 W/m2
18:31 -0.6 °C -2.2 °C 1015.8 hPa South 12.9 km/h -1607.7 km/h 89 % 0 mm 0 W/m2
18:36 -0.6 °C -2.2 °C 1015.8 hPa South 12.9 km/h -1607.7 km/h 89 % 0 mm 0 W/m2
18:41 -0.6 °C -2.2 °C 1015.8 hPa SSE 11.3 km/h -1607.7 km/h 89 % 0 mm 0 W/m2
18:46 -0.6 °C -2.2 °C 1015.8 hPa SSE 11.3 km/h -1607.7 km/h 89 % 0 mm 0 W/m2
18:51 -0.6 °C -2.2 °C 1015.8 hPa SSE 11.3 km/h -1607.7 km/h 89 % 0 mm 0 W/m2
18:56 -0.6 °C -2 °C 1015.8 hPa SE 12.9 km/h -1607.7 km/h 90 % 0 mm 0 W/m2
19:01 -0.6 °C -2 °C 1015.8 hPa SE 12.9 km/h -1607.7 km/h 90 % 0 mm 0 W/m2
19:06 -0.6 °C -2 °C 1015.8 hPa SE 12.9 km/h -1607.7 km/h 90 % 0 mm 0 W/m2
19:11 -0.6 °C -2.2 °C 1015.8 hPa SE 14.5 km/h -1607.7 km/h 89 % 0 mm 0 W/m2
19:16 -0.6 °C -2.2 °C 1015.8 hPa SE 14.5 km/h -1607.7 km/h 89 % 0 mm 0 W/m2
19:21 -0.6 °C -2.2 °C 1015.8 hPa SE 14.5 km/h -1607.7 km/h 89 % 0 mm 0 W/m2
19:26 -0.8 °C -2.4 °C 1015.8 hPa SE 14.5 km/h -1607.7 km/h 89 % 0 mm 0 W/m2
19:31 -0.8 °C -2.4 °C 1015.8 hPa SE 14.5 km/h -1607.7 km/h 89 % 0 mm 0 W/m2
19:36 -0.8 °C -2.4 °C 1015.8 hPa SE 14.5 km/h -1607.7 km/h 89 % 0 mm 0 W/m2
19:41 -0.8 °C -2.4 °C 1015.8 hPa SE 11.3 km/h -1607.7 km/h 89 % 0 mm 0 W/m2
19:46 -0.8 °C -2.4 °C 1015.8 hPa SE 11.3 km/h -1607.7 km/h 89 % 0 mm 0 W/m2
19:51 -0.8 °C -2.4 °C 1015.8 hPa SE 11.3 km/h -1607.7 km/h 89 % 0 mm 0 W/m2
19:56 -0.7 °C -2.3 °C 1015.8 hPa SSE 11.3 km/h -1607.7 km/h 89 % 0 mm 0 W/m2
20:01 -0.7 °C -2.3 °C 1015.8 hPa SSE 11.3 km/h -1607.7 km/h 89 % 0 mm 0 W/m2
20:06 -0.7 °C -2.3 °C 1015.8 hPa SSE 11.3 km/h -1607.7 km/h 89 % 0 mm 0 W/m2
20:11 -0.8 °C -2.5 °C 1015.8 hPa SSE 12.9 km/h -1607.7 km/h 88 % 0 mm 0 W/m2
20:16 -0.8 °C -2.5 °C 1015.8 hPa SSE 12.9 km/h -1607.7 km/h 88 % 0 mm 0 W/m2
20:21 -0.8 °C -2.5 °C 1015.8 hPa SSE 12.9 km/h -1607.7 km/h 88 % 0 mm 0 W/m2
20:26 -0.9 °C -2.6 °C 1015.8 hPa SSE 11.3 km/h -1607.7 km/h 89 % 0 mm 0 W/m2
20:31 -0.9 °C -2.6 °C 1015.8 hPa SSE 11.3 km/h -1607.7 km/h 89 % 0 mm 0 W/m2
20:36 -0.9 °C -2.6 °C 1015.8 hPa SSE 11.3 km/h -1607.7 km/h 89 % 0 mm 0 W/m2
20:41 -1 °C -2.6 °C 1015.8 hPa South 8 km/h -1607.7 km/h 89 % 0 mm 0 W/m2
20:46 -1 °C -2.6 °C 1015.8 hPa South 8 km/h -1607.7 km/h 89 % 0 mm 0 W/m2
20:51 -1 °C -2.6 °C 1015.8 hPa South 8 km/h -1607.7 km/h 89 % 0 mm 0 W/m2
20:56 -1.1 °C -2.8 °C 1015.5 hPa SSE 11.3 km/h -1607.7 km/h 88 % 0 mm 0 W/m2
21:01 -1.1 °C -2.8 °C 1015.5 hPa SSE 11.3 km/h -1607.7 km/h 88 % 0 mm 0 W/m2
21:06 -1.1 °C -2.8 °C 1015.5 hPa SSE 11.3 km/h -1607.7 km/h 88 % 0 mm 0 W/m2
21:11 -1.2 °C -2.7 °C 1015.5 hPa SSE 11.3 km/h -1607.7 km/h 89 % 0 mm 0 W/m2
21:16 -1.2 °C -2.7 °C 1015.5 hPa SSE 11.3 km/h -1607.7 km/h 89 % 0 mm 0 W/m2
21:21 -1.2 °C -2.7 °C 1015.5 hPa SSE 11.3 km/h -1607.7 km/h 89 % 0 mm 0 W/m2
21:26 -1.2 °C -2.7 °C 1015.1 hPa SSE 9.7 km/h -1607.7 km/h 89 % 0 mm 0 W/m2
21:31 -1.2 °C -2.7 °C 1015.1 hPa SSE 9.7 km/h -1607.7 km/h 89 % 0 mm 0 W/m2
21:36 -1.2 °C -2.7 °C 1015.1 hPa SSE 9.7 km/h -1607.7 km/h 89 % 0 mm 0 W/m2
21:41 -1.2 °C -2.8 °C 1015.1 hPa SE 11.3 km/h -1607.7 km/h 89 % 0 mm 0 W/m2
21:46 -1.2 °C -2.8 °C 1015.1 hPa SE 11.3 km/h -1607.7 km/h 89 % 0 mm 0 W/m2
21:51 -1.2 °C -2.8 °C 1015.1 hPa SE 11.3 km/h -1607.7 km/h 89 % 0 mm 0 W/m2
21:56 -1.3 °C -2.8 °C 1015.1 hPa SE 12.9 km/h -1607.7 km/h 89 % 0 mm 0 W/m2
22:01 -1.3 °C -2.8 °C 1015.1 hPa SE 12.9 km/h -1607.7 km/h 89 % 0 mm 0 W/m2
22:06 -1.3 °C -2.8 °C 1015.1 hPa SE 12.9 km/h -1607.7 km/h 89 % 0 mm 0 W/m2
22:11 -1.4 °C -2.8 °C 1015.1 hPa SE 11.3 km/h -1607.7 km/h 90 % 0 mm 0 W/m2
22:16 -1.4 °C -2.8 °C 1015.1 hPa SE 11.3 km/h -1607.7 km/h 90 % 0 mm 0 W/m2
22:21 -1.4 °C -2.8 °C 1015.1 hPa SE 11.3 km/h -1607.7 km/h 90 % 0 mm 0 W/m2
22:26 -1.4 °C -2.8 °C 1015.1 hPa SE 8 km/h -1607.7 km/h 90 % 0 mm 0 W/m2
22:31 -1.4 °C -2.8 °C 1015.1 hPa SE 8 km/h -1607.7 km/h 90 % 0 mm 0 W/m2
22:36 -1.4 °C -2.8 °C 1015.1 hPa SE 8 km/h -1607.7 km/h 90 % 0 mm 0 W/m2
22:41 -1.4 °C -2.9 °C 1015.1 hPa SE 11.3 km/h -1607.7 km/h 90 % 0 mm 0 W/m2
22:46 -1.4 °C -2.9 °C 1015.1 hPa SE 11.3 km/h -1607.7 km/h 90 % 0 mm 0 W/m2
22:51 -1.4 °C -2.9 °C 1015.1 hPa SE 11.3 km/h -1607.7 km/h 90 % 0 mm 0 W/m2
22:56 -1.6 °C -3 °C 1015.1 hPa SE 12.9 km/h -1607.7 km/h 90 % 0 mm 0 W/m2
23:01 -1.6 °C -3 °C 1015.1 hPa SE 12.9 km/h -1607.7 km/h 90 % 0 mm 0 W/m2
23:06 -1.6 °C -3 °C 1015.1 hPa SE 12.9 km/h -1607.7 km/h 90 % 0 mm 0 W/m2
23:11 -1.7 °C -3.2 °C 1014.8 hPa SSE 12.9 km/h -1607.7 km/h 90 % 0 mm 0 W/m2
23:16 -1.7 °C -3.2 °C 1014.8 hPa SSE 12.9 km/h -1607.7 km/h 90 % 0 mm 0 W/m2
23:21 -1.7 °C -3.2 °C 1014.8 hPa SSE 12.9 km/h -1607.7 km/h 90 % 0 mm 0 W/m2
23:26 -1.8 °C -3.2 °C 1014.8 hPa SE 9.7 km/h -1607.7 km/h 90 % 0 mm 0 W/m2
23:31 -1.8 °C -3.2 °C 1014.8 hPa SE 9.7 km/h -1607.7 km/h 90 % 0 mm 0 W/m2
23:36 -1.8 °C -3.2 °C 1014.8 hPa SE 9.7 km/h -1607.7 km/h 90 % 0 mm 0 W/m2
23:41 -1.8 °C -3.1 °C 1014.8 hPa SSE 11.3 km/h -1607.7 km/h 91 % 0 mm 0 W/m2
23:46 -1.8 °C -3.1 °C 1014.8 hPa SSE 11.3 km/h -1607.7 km/h 91 % 0 mm 0 W/m2
23:51 -1.8 °C -3.1 °C 1014.8 hPa SSE 11.3 km/h -1607.7 km/h 91 % 0 mm 0 W/m2
23:56 -1.8 °C -3.1 °C 1014.8 hPa SSE 11.3 km/h -1607.7 km/h 91 % 0 mm 0 W/m2
Delerius-Weather
Compliments of Weather Underground - 2.25 mb

Data updates at regular intervals.